Time;durP1;ratioP1;P1;durP2;ratioP2;P2;SDS_P1;SDS_P2;PMS_P1;PMS_P2;Temp;Humidity;BMP_temperature;BMP_pressure;BME280_temperature;BME280_humidity;BME280_pressure;Samples;Min_cycle;Max_cycle;Signal;HPM_P1;HPM_P2
2022/05/02 00:01:23;;;;;;;5.87;4.67;;;;;;;19.41;56.30;100429.81;5092392;28;20198;-61
2022/05/02 00:03:49;;;;;;;7.17;5.07;;;;;;;19.39;56.19;100427.31;5092635;28;20652;-60
2022/05/02 00:06:14;;;;;;;8.27;4.90;;;;;;;19.39;56.27;100424.47;5092036;28;20197;-60
2022/05/02 00:08:40;;;;;;;5.57;4.57;;;;;;;19.38;56.25;100422.81;5092350;28;20223;-60
2022/05/02 00:11:05;;;;;;;5.70;4.00;;;;;;;19.40;56.13;100423.25;5091100;28;20174;-60
2022/05/02 00:13:31;;;;;;;4.70;3.90;;;;;;;19.39;56.39;100412.16;5091463;28;20186;-60
2022/05/02 00:15:57;;;;;;;7.90;4.77;;;;;;;19.40;56.15;100405.22;5092469;28;20174;-60
2022/05/02 00:18:22;;;;;;;5.93;4.13;;;;;;;19.39;56.33;100406.44;5092280;28;20432;-60
2022/05/02 00:20:48;;;;;;;6.00;4.90;;;;;;;19.37;56.14;100414.59;5090712;28;20178;-60
2022/05/02 00:23:14;;;;;;;4.93;4.30;;;;;;;19.37;56.34;100409.69;5073839;28;20228;-60
2022/05/02 00:25:39;;;;;;;7.00;4.60;;;;;;;19.38;56.21;100416.25;5071974;28;20244;-60
2022/05/02 00:28:05;;;;;;;5.80;4.40;;;;;;;19.38;56.34;100408.50;5072020;28;20199;-60
2022/05/02 00:30:31;;;;;;;5.97;4.70;;;;;;;19.39;56.18;100409.31;5071958;28;20172;-60
2022/05/02 00:32:57;;;;;;;4.90;4.20;;;;;;;19.38;56.22;100410.53;5071468;28;20545;-60
2022/05/02 00:35:22;;;;;;;4.90;4.37;;;;;;;19.36;56.21;100410.91;5072208;28;20585;-60
2022/05/02 00:37:48;;;;;;;5.83;4.50;;;;;;;19.36;56.27;100410.09;5071844;28;20402;-60
2022/05/02 00:40:15;;;;;;;6.10;4.50;;;;;;;19.34;56.16;100401.06;5078033;28;20194;-60
2022/05/02 00:42:42;;;;;;;4.60;3.83;;;;;;;19.35;56.45;100405.56;5091961;28;20205;-60
2022/05/02 00:45:08;;;;;;;5.53;4.47;;;;;;;19.33;56.59;100402.25;5091588;28;20909;-60
2022/05/02 00:47:34;;;;;;;6.70;4.37;;;;;;;19.34;56.29;100401.88;5091843;28;20460;-60
2022/05/02 00:49:59;;;;;;;5.83;4.40;;;;;;;19.34;56.20;100403.91;5090139;28;20414;-60
2022/05/02 00:52:25;;;;;;;6.37;4.50;;;;;;;19.33;56.23;100400.25;5072577;28;20772;-60
2022/05/02 00:54:50;;;;;;;5.80;4.50;;;;;;;19.34;56.30;100398.19;5071543;28;20175;-60
2022/05/02 00:57:16;;;;;;;7.40;4.40;;;;;;;19.33;56.30;100403.09;5071595;28;20168;-60
2022/05/02 00:59:42;;;;;;;5.20;4.50;;;;;;;19.33;56.27;100394.50;5071443;28;20175;-60
2022/05/02 01:02:09;;;;;;;7.30;4.27;;;;;;;19.32;56.40;100389.97;5071762;28;20583;-60
2022/05/02 01:04:34;;;;;;;5.90;4.80;;;;;;;19.32;56.42;100389.97;5071608;28;20174;-60
2022/05/02 01:07:09;;;;;;;5.60;4.40;;;;;;;19.31;56.24;100385.47;5071387;28;20453;-60
2022/05/02 01:09:41;;;;;;;5.93;4.87;;;;;;;19.31;56.26;100391.19;5072363;28;20167;-60
2022/05/02 01:12:24;;;;;;;6.00;4.67;;;;;;;19.33;56.53;100390.81;5071179;28;20420;-61
2022/05/02 01:14:55;;;;;;;4.33;3.93;;;;;;;19.31;56.21;100396.91;5088356;28;20412;-60
2022/05/02 01:17:20;;;;;;;5.00;4.13;;;;;;;19.33;55.81;100402.25;5091640;28;20511;-60
2022/05/02 01:19:46;;;;;;;5.13;4.10;;;;;;;19.31;56.21;100393.25;5073428;28;20988;-60
2022/05/02 01:22:12;;;;;;;5.10;4.23;;;;;;;19.31;56.19;100388.34;5073871;28;20178;-60
2022/05/02 01:24:42;;;;;;;5.77;4.60;;;;;;;19.29;56.29;100384.19;5091899;28;20209;-60
2022/05/02 01:27:08;;;;;;;5.30;4.10;;;;;;;19.31;56.09;100396.09;5074214;28;20665;-60
2022/05/02 01:29:37;;;;;;;6.20;4.40;;;;;;;19.30;56.27;100385.84;5056691;28;20455;-60
2022/05/02 01:32:07;;;;;;;5.30;4.53;;;;;;;19.30;56.19;100389.53;5091441;28;20412;-60
2022/05/02 01:34:36;;;;;;;5.20;4.00;;;;;;;19.29;55.74;100382.19;5091213;28;20424;-60
2022/05/02 01:37:02;;;;;;;6.13;4.80;;;;;;;19.31;56.34;100381.78;5073494;28;20417;-59
2022/05/02 01:39:29;;;;;;;6.00;4.50;;;;;;;19.28;56.15;100383.38;5071962;28;20518;-60
2022/05/02 01:41:54;;;;;;;4.80;4.30;;;;;;;19.28;56.17;100383.38;5068944;28;20773;-60
2022/05/02 01:44:20;;;;;;;6.97;4.40;;;;;;;19.28;56.18;100379.69;5076017;28;20425;-60
2022/05/02 01:46:45;;;;;;;4.83;4.07;;;;;;;19.30;56.17;100383.81;5074865;28;20209;-60
2022/05/02 01:49:11;;;;;;;4.80;3.93;;;;;;;19.28;56.40;100383.38;5057262;28;20191;-60
2022/05/02 01:51:36;;;;;;;4.57;3.70;;;;;;;19.28;56.16;100377.66;5075071;28;20246;-60
2022/05/02 01:54:02;;;;;;;5.93;4.53;;;;;;;19.29;56.21;100378.47;5057147;28;20189;-60
2022/05/02 01:56:27;;;;;;;5.50;4.00;;;;;;;19.28;56.08;100380.53;5074988;28;20198;-60
2022/05/02 01:58:53;;;;;;;6.07;4.10;;;;;;;19.27;56.33;100376.00;5073683;28;20548;-60
2022/05/02 02:01:19;;;;;;;8.80;4.10;;;;;;;19.28;56.09;100383.38;5084828;28;20672;-60
2022/05/02 02:03:44;;;;;;;5.87;4.30;;;;;;;19.28;56.21;100386.25;5095148;28;20179;-60
2022/05/02 02:06:10;;;;;;;5.00;3.83;;;;;;;19.26;56.09;100382.94;5094848;28;20207;-60
2022/05/02 02:08:35;;;;;;;5.40;4.30;;;;;;;19.28;56.28;100383.38;5094863;28;20222;-60
2022/05/02 02:11:06;;;;;;;5.23;3.73;;;;;;;19.28;56.22;100376.81;5094669;28;20182;-60
2022/05/02 02:13:31;;;;;;;4.90;4.13;;;;;;;19.26;56.33;100377.22;5094956;28;20539;-59
2022/05/02 02:15:57;;;;;;;5.70;4.37;;;;;;;19.27;56.27;100380.91;5094265;28;20420;-60
2022/05/02 02:18:23;;;;;;;4.80;3.43;;;;;;;19.26;56.00;100379.25;5094958;28;20545;-60
2022/05/02 02:20:49;;;;;;;6.00;4.30;;;;;;;19.25;56.21;100372.69;5094482;28;20653;-60
2022/05/02 02:23:15;;;;;;;5.00;4.43;;;;;;;19.25;56.28;100378.41;5094869;28;20174;-60
2022/05/02 02:25:41;;;;;;;5.47;4.17;;;;;;;19.25;56.02;100378.41;5081499;28;20950;-60
2022/05/02 02:28:06;;;;;;;4.80;3.90;;;;;;;19.26;56.48;100376.41;5074159;28;20202;-60
2022/05/02 02:30:32;;;;;;;4.90;4.00;;;;;;;19.26;56.05;100374.34;5074156;28;20182;-60
2022/05/02 02:32:58;;;;;;;5.00;4.37;;;;;;;19.25;56.15;100372.69;5074233;28;20205;-60
2022/05/02 02:35:24;;;;;;;5.17;3.73;;;;;;;19.26;56.11;100367.81;5074350;28;20159;-60
2022/05/02 02:37:49;;;;;;;5.57;4.27;;;;;;;19.25;56.20;100366.97;5074093;28;20414;-60
2022/05/02 02:40:15;;;;;;;5.60;3.97;;;;;;;19.26;56.08;100368.63;5080567;28;20182;-60
2022/05/02 02:42:41;;;;;;;5.30;4.50;;;;;;;19.27;56.04;100369.47;5093798;28;20178;-60
2022/05/02 02:45:06;;;;;;;5.70;4.23;;;;;;;19.26;56.11;100365.75;5086232;28;20409;-61
2022/05/02 02:47:32;;;;;;;9.00;3.90;;;;;;;19.26;56.27;100368.63;5074039;28;20215;-60
2022/05/02 02:49:57;;;;;;;4.90;4.23;;;;;;;19.25;56.00;100361.25;5073961;28;20175;-60
2022/05/02 02:52:23;;;;;;;5.73;4.43;;;;;;;19.24;56.25;100359.59;5082751;28;20174;-60
2022/05/02 02:54:48;;;;;;;10.90;4.33;;;;;;;19.25;56.26;100352.66;5093822;28;20175;-60
2022/05/02 02:57:14;;;;;;;5.40;4.23;;;;;;;19.25;56.40;100358.38;5093910;28;20178;-60
2022/05/02 02:59:39;;;;;;;5.33;4.53;;;;;;;19.26;56.04;100342.84;5094139;28;20202;-60
2022/05/02 03:02:08;;;;;;;4.97;4.10;;;;;;;19.25;56.22;100344.06;5093613;28;20174;-60
2022/05/02 03:07:18;;;;;;;6.07;4.07;;;;;;;19.24;56.11;100345.28;5078392;28;20536;-60
2022/05/02 03:09:44;;;;;;;5.53;4.20;;;;;;;19.25;56.04;100346.94;5093803;28;20413;-60
2022/05/02 03:12:09;;;;;;;5.47;4.33;;;;;;;19.26;56.14;100344.91;5058641;28;20171;-60
2022/05/02 03:14:35;;;;;;;5.77;4.97;;;;;;;19.24;56.03;100345.28;5092684;28;20227;-60
2022/05/02 03:17:00;;;;;;;5.70;4.00;;;;;;;19.24;56.80;100345.28;5089205;28;20224;-60
2022/05/02 03:19:26;;;;;;;5.80;4.30;;;;;;;19.24;56.09;100336.69;5093811;28;20178;-60
2022/05/02 03:21:52;;;;;;;5.67;4.13;;;;;;;19.26;56.00;100344.91;5091633;28;20641;-60
2022/05/02 03:24:17;;;;;;;5.30;4.27;;;;;;;19.26;56.08;100339.19;5074104;28;20182;-60
2022/05/02 03:26:43;;;;;;;5.87;4.20;;;;;;;19.25;55.94;100344.06;5072923;28;20548;-60
2022/05/02 03:29:08;;;;;;;5.00;4.43;;;;;;;19.22;56.02;100339.09;5073276;28;20546;-60
2022/05/02 03:31:33;;;;;;;4.60;3.90;;;;;;;19.23;55.89;100337.91;5072996;28;20171;-60
2022/05/02 03:33:59;;;;;;;7.13;3.63;;;;;;;19.24;56.01;100339.56;5073286;28;20163;-60
2022/05/02 03:36:24;;;;;;;4.90;3.93;;;;;;;19.24;55.86;100335.88;5072916;28;20167;-60
2022/05/02 03:38:50;;;;;;;5.40;3.83;;;;;;;19.23;56.02;100337.91;5073137;28;20171;-60
2022/05/02 03:41:16;;;;;;;5.60;4.40;;;;;;;19.23;56.09;100339.94;5087595;28;20194;-60
2022/05/02 03:43:42;;;;;;;5.30;4.23;;;;;;;19.23;55.82;100339.94;5075085;28;20193;-60
2022/05/02 03:46:08;;;;;;;5.05;4.40;;;;;;;19.23;55.97;100339.94;5093057;28;20657;-60
2022/05/02 03:48:33;;;;;;;5.43;4.47;;;;;;;19.23;56.02;100337.91;5089774;28;20463;-60
2022/05/02 03:50:59;;;;;;;4.47;3.83;;;;;;;19.21;56.10;100342.34;5092909;28;20567;-60
2022/05/02 03:53:24;;;;;;;7.37;4.40;;;;;;;19.24;55.86;100341.59;5092720;28;20174;-60
2022/05/02 03:55:50;;;;;;;5.27;4.23;;;;;;;19.23;55.76;100343.66;5092608;28;20178;-60
2022/05/02 03:58:15;;;;;;;5.43;4.07;;;;;;;19.23;55.95;100345.66;5092657;28;20220;-60
2022/05/02 04:00:40;;;;;;;5.53;4.07;;;;;;;19.22;55.94;100347.69;5092808;28;20595;-60
2022/05/02 04:03:06;;;;;;;5.50;3.97;;;;;;;19.22;55.85;100341.97;5092834;28;20606;-60
2022/05/02 04:05:31;;;;;;;5.60;4.73;;;;;;;19.21;56.03;100337.44;5092394;28;20175;-60
2022/05/02 04:07:57;;;;;;;6.00;3.90;;;;;;;19.21;55.96;100340.28;5091802;28;20222;-60
2022/05/02 04:10:22;;;;;;;4.90;3.90;;;;;;;19.24;55.85;100348.16;5092977;28;20198;-60
2022/05/02 04:12:47;;;;;;;5.17;4.13;;;;;;;19.21;55.81;100346.00;5092844;28;20189;-60
2022/05/02 04:15:13;;;;;;;4.57;3.93;;;;;;;19.22;56.09;100344.81;5092680;28;20197;-60
2022/05/02 04:17:39;;;;;;;4.53;3.93;;;;;;;19.22;55.86;100350.56;5091951;28;20739;-60
2022/05/02 04:20:05;;;;;;;4.70;3.70;;;;;;;19.21;56.20;100348.88;5092713;28;20178;-59
2022/05/02 04:22:30;;;;;;;6.10;4.37;;;;;;;19.23;56.14;100351.41;5092145;28;20275;-59
2022/05/02 04:24:56;;;;;;;5.67;4.13;;;;;;;19.21;56.14;100348.88;5092490;28;20420;-60
2022/05/02 04:27:21;;;;;;;4.80;3.83;;;;;;;19.25;55.82;100351.81;5074565;28;20190;-60
2022/05/02 04:29:47;;;;;;;4.23;3.67;;;;;;;19.23;55.80;100340.78;5071970;28;20171;-61
2022/05/02 04:32:12;;;;;;;4.77;3.90;;;;;;;19.24;55.72;100350.19;5071746;28;20186;-60
2022/05/02 04:34:38;;;;;;;4.97;4.13;;;;;;;19.24;55.64;100353.03;5072117;28;20576;-60
2022/05/02 04:37:03;;;;;;;4.50;3.77;;;;;;;19.20;56.16;100352.97;5071844;28;20176;-60
2022/05/02 04:39:29;;;;;;;4.90;3.73;;;;;;;19.21;56.07;100354.59;5072126;28;20179;-60
2022/05/02 04:41:54;;;;;;;4.70;3.97;;;;;;;19.21;55.66;100348.06;5091714;28;20181;-60
2022/05/02 04:44:20;;;;;;;4.63;3.60;;;;;;;19.20;56.04;100355.81;5091691;28;20193;-60
2022/05/02 04:46:45;;;;;;;4.60;3.67;;;;;;;19.21;55.90;100356.66;5091482;28;20202;-60
2022/05/02 04:49:10;;;;;;;6.00;4.50;;;;;;;19.20;55.85;100358.69;5092109;28;20170;-60
2022/05/02 04:51:36;;;;;;;5.50;4.20;;;;;;;19.20;55.88;100357.84;5077940;28;20190;-60
2022/05/02 04:54:01;;;;;;;4.93;3.90;;;;;;;19.20;55.94;100352.97;5071701;28;20183;-60
2022/05/02 04:56:27;;;;;;;5.50;4.13;;;;;;;19.20;55.95;100352.97;5071376;28;20178;-60
2022/05/02 04:58:52;;;;;;;4.40;3.47;;;;;;;19.21;55.74;100357.47;5072063;28;20318;-60
2022/05/02 05:01:18;;;;;;;5.33;4.20;;;;;;;19.23;55.74;100362.84;5071551;28;20175;-60
2022/05/02 05:03:43;;;;;;;4.53;3.63;;;;;;;19.23;55.85;100357.97;5053973;28;20190;-60
2022/05/02 05:06:09;;;;;;;6.30;4.80;;;;;;;19.23;55.74;100355.09;5071723;28;20171;-60
2022/05/02 05:08:34;;;;;;;4.70;3.80;;;;;;;19.24;55.67;100358.75;5071315;28;20649;-60
2022/05/02 05:11:25;;;;;;;4.93;4.03;;;;;;;19.24;56.12;100359.59;5084123;28;20186;-60
2022/05/02 05:17:30;;;;;;;4.47;3.47;;;;;;;19.23;55.84;100352.22;5019099;28;20424;-60
2022/05/02 05:20:04;;;;;;;5.47;3.87;;;;;;;19.23;55.77;100343.66;5094372;28;20901;-60
2022/05/02 05:22:37;;;;;;;5.23;4.20;;;;;;;19.24;56.03;100353.03;5076168;28;20455;-59
2022/05/02 05:25:20;;;;;;;4.30;3.70;;;;;;;19.22;56.14;100353.41;5077687;28;20417;-60
2022/05/02 05:28:22;;;;;;;4.40;3.70;;;;;;;19.23;55.75;100346.50;5059424;28;20463;-60
2022/05/02 05:30:50;;;;;;;5.30;3.93;;;;;;;19.25;55.88;100348.97;5075320;28;20433;-60
2022/05/02 05:33:42;;;;;;;4.47;3.87;;;;;;;19.23;55.72;100345.66;5075506;28;20421;-60
2022/05/02 05:36:25;;;;;;;4.50;3.90;;;;;;;19.20;55.84;100347.22;5042334;28;20500;-60
2022/05/02 05:39:05;;;;;;;4.50;3.90;;;;;;;19.22;56.08;100344.81;5075385;28;20405;-60
2022/05/02 05:42:08;;;;;;;5.93;4.30;;;;;;;19.27;55.40;100349.41;5074350;28;20428;-60
2022/05/02 05:45:00;;;;;;;4.37;3.90;;;;;;;19.25;55.95;100346.94;5094416;28;20751;-60
2022/05/02 05:47:49;;;;;;;4.00;3.40;;;;;;;19.23;55.95;100346.50;5094055;28;20475;-60
2022/05/02 05:50:20;;;;;;;5.07;4.10;;;;;;;19.22;55.86;100344.81;5074949;28;20417;-61
2022/05/02 05:52:58;;;;;;;4.90;3.77;;;;;;;19.21;55.98;100339.47;5056968;28;20421;-60
2022/05/02 05:55:37;;;;;;;5.50;4.20;;;;;;;19.21;56.13;100337.44;5075020;28;20408;-60
2022/05/02 05:58:19;;;;;;;5.20;4.20;;;;;;;19.21;55.80;100340.28;5074912;28;20878;-60
2022/05/02 06:00:45;;;;;;;4.73;4.00;;;;;;;19.20;55.63;100334.94;5057194;28;20914;-60
2022/05/02 06:03:14;;;;;;;5.73;3.97;;;;;;;19.22;55.52;100339.09;5074550;28;20417;-60
2022/05/02 06:05:43;;;;;;;4.83;4.07;;;;;;;19.20;55.84;100332.91;5074899;28;20266;-60
2022/05/02 06:08:10;;;;;;;5.00;4.03;;;;;;;19.21;55.71;100336.63;5074525;28;20469;-60
2022/05/02 06:10:36;;;;;;;5.30;4.20;;;;;;;19.21;55.74;100337.44;5083972;28;20439;-60
2022/05/02 06:13:02;;;;;;;5.33;4.40;;;;;;;19.21;55.70;100343.16;5094685;28;20783;-61
2022/05/02 06:18:29;;;;;;;4.93;4.00;;;;;;;19.25;55.78;100332.63;5079364;28;20177;-60
2022/05/02 06:21:01;;;;;;;5.47;4.23;;;;;;;19.24;56.01;100338.72;5079012;28;20423;-59
2022/05/02 06:23:28;;;;;;;5.00;4.30;;;;;;;19.25;55.44;100344.06;5094927;28;20423;-60
2022/05/02 06:25:54;;;;;;;5.83;4.57;;;;;;;19.24;55.73;100339.56;5076333;28;20424;-60
2022/05/02 06:28:21;;;;;;;4.83;3.70;;;;;;;19.25;55.74;100341.22;5094420;28;20880;-60
2022/05/02 06:30:49;;;;;;;5.20;4.37;;;;;;;19.24;55.67;100341.59;5076001;28;20538;-60
2022/05/02 06:33:14;;;;;;;5.13;4.50;;;;;;;19.23;55.82;100339.94;5091172;28;20459;-60
2022/05/02 06:36:00;;;;;;;5.63;4.53;;;;;;;19.24;55.82;100341.59;5056178;28;20452;-60
2022/05/02 06:38:44;;;;;;;4.93;3.70;;;;;;;19.22;55.89;100344.81;5073810;28;20254;-60
2022/05/02 06:41:40;;;;;;;5.50;4.40;;;;;;;19.25;55.79;100338.34;5086683;28;20845;-60
2022/05/02 06:44:05;;;;;;;6.13;4.50;;;;;;;19.24;55.46;100339.56;5078749;28;20396;-60
2022/05/02 06:46:37;;;;;;;5.73;4.23;;;;;;;19.25;55.63;100340.38;5093836;28;20442;-60
2022/05/02 06:49:04;;;;;;;5.33;4.23;;;;;;;19.24;55.77;100348.16;5075563;28;20667;-60
2022/05/02 06:51:31;;;;;;;5.93;4.17;;;;;;;19.22;55.93;100339.09;5094012;28;20962;-60
2022/05/02 06:54:34;;;;;;;4.63;4.03;;;;;;;19.25;55.88;100332.63;5093567;28;20470;-59
2022/05/02 06:57:26;;;;;;;5.80;4.40;;;;;;;19.24;55.58;100333.84;5084739;28;20401;-60
2022/05/02 07:00:06;;;;;;;5.27;4.33;;;;;;;19.24;55.64;100333.84;5035782;28;20441;-60
2022/05/02 07:03:09;;;;;;;5.77;4.70;;;;;;;19.26;55.45;100334.28;5073193;28;20424;-60
2022/05/02 07:05:46;;;;;;;5.70;4.20;;;;;;;19.25;55.73;100344.06;5073760;28;20411;-59
2022/05/02 07:08:11;;;;;;;4.73;4.00;;;;;;;19.26;55.70;100339.19;5073306;28;20526;-60
2022/05/02 07:10:38;;;;;;;5.33;4.20;;;;;;;19.24;55.48;100341.59;5082980;28;20766;-59
2022/05/02 07:13:21;;;;;;;5.93;4.27;;;;;;;19.24;55.85;100351.00;5093351;28;20189;-60
2022/05/02 07:16:17;;;;;;;4.03;3.57;;;;;;;19.24;55.61;100347.31;5075811;28;20507;-60
2022/05/02 07:18:46;;;;;;;5.20;4.40;;;;;;;19.24;55.74;100348.16;5076001;28;20516;-60
2022/05/02 07:21:46;;;;;;;4.97;4.03;;;;;;;19.23;55.64;100343.66;5055498;28;20491;-60
2022/05/02 07:24:26;;;;;;;5.80;4.40;;;;;;;19.24;55.56;100345.28;5073237;28;20905;-60
2022/05/02 07:27:01;;;;;;;8.53;4.40;;;;;;;19.24;55.80;100342.44;5072991;28;20463;-60
2022/05/02 07:29:26;;;;;;;5.70;4.30;;;;;;;19.24;55.51;100350.19;5075209;28;20405;-60
2022/05/02 07:31:52;;;;;;;5.70;4.57;;;;;;;19.25;55.52;100351.81;5054535;28;20428;-59
2022/05/02 07:34:18;;;;;;;6.60;4.23;;;;;;;19.27;55.66;100349.41;5053860;28;20176;-59
2022/05/02 07:36:43;;;;;;;5.77;3.97;;;;;;;19.24;55.72;100342.44;5072502;28;20627;-60
2022/05/02 07:39:12;;;;;;;5.00;4.10;;;;;;;19.25;55.41;100349.78;5038259;28;20210;-60
2022/05/02 07:41:38;;;;;;;4.37;3.70;;;;;;;19.25;55.54;100341.22;5073036;28;20197;-60
2022/05/02 07:44:08;;;;;;;5.43;4.17;;;;;;;19.27;55.58;100346.56;5092923;28;20401;-60
2022/05/02 07:46:37;;;;;;;6.00;4.20;;;;;;;19.26;55.61;100342.84;5074437;28;20255;-60
2022/05/02 07:49:04;;;;;;;5.33;4.07;;;;;;;19.24;55.67;100336.69;5092966;28;20795;-60
2022/05/02 07:51:30;;;;;;;4.80;4.03;;;;;;;19.26;55.55;100340.00;5092723;28;20416;-59
2022/05/02 07:54:00;;;;;;;5.93;4.30;;;;;;;19.27;55.55;100343.69;5089699;28;20779;-59
2022/05/02 07:56:30;;;;;;;6.03;4.47;;;;;;;19.27;55.33;100340.84;5092350;28;20171;-59
2022/05/02 07:58:57;;;;;;;4.87;3.90;;;;;;;19.27;55.58;100346.56;5091368;28;20432;-60
2022/05/02 08:01:23;;;;;;;4.80;3.80;;;;;;;19.30;55.33;100345.78;5092656;28;20452;-60
2022/05/02 08:03:49;;;;;;;5.20;4.07;;;;;;;19.27;55.59;100340.84;5092557;28;20825;-60
2022/05/02 08:06:23;;;;;;;5.40;3.93;;;;;;;19.28;55.30;100346.19;5092649;28;20424;-60
2022/05/02 08:09:23;;;;;;;5.47;4.27;;;;;;;19.27;55.51;100344.50;5058209;28;20600;-60
2022/05/02 08:12:02;;;;;;;4.30;3.80;;;;;;;19.29;55.32;100344.97;5039715;28;20471;-60
2022/05/02 08:15:06;;;;;;;7.13;3.87;;;;;;;19.28;55.54;100343.31;5054459;28;20800;-59
2022/05/02 08:17:49;;;;;;;4.83;4.27;;;;;;;19.26;55.71;100348.59;5079311;28;20784;-59
2022/05/02 08:20:46;;;;;;;6.93;4.17;;;;;;;19.27;55.44;100347.38;5092507;28;20919;-60
2022/05/02 08:29:41;;;;;;;5.07;3.90;;;;;;;19.26;55.78;100334.28;5072071;28;20428;-60
2022/05/02 08:32:30;;;;;;;5.23;4.30;;;;;;;19.26;55.65;100339.19;5070772;28;20425;-60
2022/05/02 08:35:08;;;;;;;4.87;3.90;;;;;;;19.27;55.48;100326.53;5070969;28;20500;-60
2022/05/02 08:37:40;;;;;;;4.90;4.00;;;;;;;19.25;55.50;100326.91;5074349;28;20838;-60
2022/05/02 08:40:05;;;;;;;4.90;4.10;;;;;;;19.25;55.53;100321.19;5060542;28;20424;-60
2022/05/02 08:42:33;;;;;;;4.73;3.97;;;;;;;19.28;55.48;100331.88;5091944;28;20427;-60
2022/05/02 08:45:07;;;;;;;4.87;3.70;;;;;;;19.26;55.52;100325.69;5091916;28;20212;-60
2022/05/02 08:47:45;;;;;;;5.47;4.17;;;;;;;19.28;55.41;100331.88;5091403;28;20514;-60
2022/05/02 08:50:32;;;;;;;5.50;4.20;;;;;;;19.28;55.54;100322.44;5091885;28;20420;-60
2022/05/02 08:53:01;;;;;;;4.40;3.80;;;;;;;19.26;55.62;100322.81;5066553;28;20429;-60
2022/05/02 08:55:42;;;;;;;4.60;4.10;;;;;;;19.25;55.43;100324.03;5085348;28;20938;-60
2022/05/02 08:58:45;;;;;;;5.10;3.97;;;;;;;19.25;55.59;100320.34;5073217;28;20419;-60
2022/05/02 09:01:46;;;;;;;5.17;3.60;;;;;;;19.23;55.92;100323.59;5091596;28;20400;-60
2022/05/02 09:04:45;;;;;;;4.57;3.57;;;;;;;19.24;55.91;100319.53;5076379;28;20404;-60
2022/05/02 09:07:13;;;;;;;4.97;4.30;;;;;;;19.24;55.30;100322.41;5091417;28;20452;-59
2022/05/02 09:09:59;;;;;;;6.17;4.30;;;;;;;19.23;55.80;100315.03;5091597;28;20420;-60
2022/05/02 09:12:49;;;;;;;6.17;4.07;;;;;;;19.24;55.71;100321.56;5088425;28;21239;-60
2022/05/02 09:15:21;;;;;;;5.10;3.80;;;;;;;19.26;55.52;100319.16;5091660;28;20401;-60
2022/05/02 09:18:01;;;;;;;4.47;3.70;;;;;;;19.26;55.70;100317.09;5091414;28;20474;-60
2022/05/02 09:20:49;;;;;;;9.90;4.10;;;;;;;19.24;55.63;100312.97;5079156;28;20421;-60
2022/05/02 09:23:31;;;;;;;5.27;4.17;;;;;;;19.26;55.55;100317.09;5071395;28;20398;-60
2022/05/02 09:26:06;;;;;;;7.80;3.83;;;;;;;19.26;55.73;100317.09;5053361;28;20417;-60
2022/05/02 09:28:53;;;;;;;5.07;4.03;;;;;;;19.26;55.74;100305.66;5071354;28;20978;-60
2022/05/02 09:31:45;;;;;;;5.17;3.73;;;;;;;19.25;55.65;100312.59;5070962;28;20412;-60
2022/05/02 09:34:20;;;;;;;5.30;3.90;;;;;;;19.25;55.64;100308.88;5053464;28;20417;-58
2022/05/02 09:37:04;;;;;;;4.50;3.70;;;;;;;19.26;55.85;100313.44;5071025;28;20493;-60
2022/05/02 09:39:48;;;;;;;4.53;4.03;;;;;;;19.27;55.82;100315.06;5054793;28;20891;-60
2022/05/02 09:42:19;;;;;;;4.40;3.50;;;;;;;19.26;54.86;100304.84;5058170;28;20479;-59
2022/05/02 09:51:08;;;;;;;4.70;3.47;;;;;;;19.26;55.52;100290.53;5090466;28;20431;-59
2022/05/02 09:53:55;;;;;;;4.73;3.87;;;;;;;19.27;55.60;100295.84;5041737;28;20427;-60
2022/05/02 09:56:40;;;;;;;4.70;3.50;;;;;;;19.24;55.71;100292.94;5069704;28;20837;-61
2022/05/02 09:59:08;;;;;;;5.00;3.70;;;;;;;19.22;55.86;100296.16;5089758;28;20407;-59
2022/05/02 10:01:33;;;;;;;4.57;3.47;;;;;;;19.23;55.71;100297.84;5090879;28;20427;-60
2022/05/02 10:04:20;;;;;;;5.20;3.17;;;;;;;19.24;55.67;100287.22;5091174;28;20788;-60
2022/05/02 10:06:50;;;;;;;5.43;3.70;;;;;;;19.24;55.87;100295.78;5094782;28;20204;-60
2022/05/02 10:09:40;;;;;;;6.27;3.90;;;;;;;19.24;55.91;100290.91;5094632;28;20477;-60
2022/05/02 10:12:30;;;;;;;5.13;3.50;;;;;;;19.26;55.84;100284.81;5054787;28;20798;-60
2022/05/02 10:15:14;;;;;;;5.10;3.30;;;;;;;19.25;55.75;100286.81;5054664;28;20932;-59
2022/05/02 10:18:15;;;;;;;7.40;4.53;;;;;;;19.27;55.59;100283.59;5066988;28;20417;-60
2022/05/02 10:21:09;;;;;;;5.00;3.30;;;;;;;19.24;55.83;100285.19;4973030;28;20476;-60
2022/05/02 10:23:56;;;;;;;4.50;3.60;;;;;;;19.25;55.73;100278.25;5073676;28;20520;-60
2022/05/02 10:26:41;;;;;;;7.33;3.87;;;;;;;19.27;55.75;100283.59;5074321;28;20541;-60
2022/05/02 10:29:43;;;;;;;6.37;3.70;;;;;;;19.26;55.75;100282.75;5074189;28;20521;-60
2022/05/02 10:32:43;;;;;;;7.73;3.60;;;;;;;19.23;55.91;100280.69;5074484;28;20419;-60
2022/05/02 10:35:25;;;;;;;6.93;4.40;;;;;;;19.24;55.79;100273.72;5056415;28;20521;-60
2022/05/02 10:38:01;;;;;;;5.37;3.43;;;;;;;19.27;55.69;100275.00;5076526;28;20504;-60
2022/05/02 10:40:45;;;;;;;5.07;3.90;;;;;;;19.26;55.91;100271.28;5052967;28;20417;-60
2022/05/02 10:43:12;;;;;;;5.47;3.77;;;;;;;19.27;55.69;100278.66;5053316;28;20937;-60
2022/05/02 10:45:38;;;;;;;5.60;3.77;;;;;;;19.25;55.71;100275.38;5035580;28;20831;-60
2022/05/02 10:48:14;;;;;;;7.13;3.63;;;;;;;19.26;55.86;100267.63;5053820;28;20470;-60
2022/05/02 10:50:40;;;;;;;5.90;3.37;;;;;;;19.27;55.62;100275.00;5071310;28;20912;-60
2022/05/02 10:53:26;;;;;;;7.83;3.80;;;;;;;19.27;55.68;100261.50;5074035;28;20432;-60
2022/05/02 10:56:22;;;;;;;6.30;3.50;;;;;;;19.25;55.84;100260.22;5056051;28;20204;-60
2022/05/02 10:58:47;;;;;;;8.33;3.50;;;;;;;19.24;55.94;100259.41;5059123;28;20509;-60
2022/05/02 11:02:20;;;;;;;6.07;3.73;;;;;;;19.27;55.89;100252.91;5073438;28;20424;-60
2022/05/02 11:05:24;;;;;;;6.43;4.33;;;;;;;19.27;55.86;100250.03;4962527;28;20238;-60
2022/05/02 11:08:27;;;;;;;6.57;3.47;;;;;;;19.26;55.73;100250.47;5069454;28;21057;-60
2022/05/02 11:10:57;;;;;;;5.50;4.07;;;;;;;19.25;55.88;100251.63;5075486;28;20456;-60
2022/05/02 11:13:23;;;;;;;8.37;3.87;;;;;;;19.28;55.79;100246.00;5075777;28;20408;-60
2022/05/02 11:16:09;;;;;;;4.63;3.30;;;;;;;19.27;55.74;100247.19;5089647;28;20424;-60
2022/05/02 11:22:10;;;;;;;5.97;3.70;;;;;;;19.29;55.79;100235.34;5069283;28;20416;-60
2022/05/02 11:24:47;;;;;;;11.50;3.60;;;;;;;19.26;55.91;100236.94;5073163;28;20494;-60
2022/05/02 11:27:50;;;;;;;8.30;3.47;;;;;;;19.28;55.47;100231.69;5039830;28;20495;-60
2022/05/02 11:30:16;;;;;;;4.17;3.20;;;;;;;19.26;55.73;100231.22;5073343;28;20413;-60
2022/05/02 11:33:19;;;;;;;7.90;4.17;;;;;;;19.29;55.50;100233.31;5055245;28;20452;-60
2022/05/02 11:35:47;;;;;;;7.40;3.23;;;;;;;19.27;55.88;100232.06;5072624;28;20413;-60
2022/05/02 11:38:31;;;;;;;5.60;3.53;;;;;;;19.30;55.84;100225.53;5073372;28;20414;-60
2022/05/02 11:41:10;;;;;;;4.40;3.30;;;;;;;19.29;55.88;100218.19;5085066;28;20420;-60
2022/05/02 11:43:36;;;;;;;7.47;4.67;;;;;;;19.28;55.77;100228.81;5093294;28;20748;-60
2022/05/02 11:46:24;;;;;;;8.77;3.53;;;;;;;19.27;55.80;100223.47;5092580;28;20433;-60
2022/05/02 11:49:27;;;;;;;6.13;3.57;;;;;;;19.32;56.06;100221.09;5093146;28;20958;-60
2022/05/02 11:51:53;;;;;;;7.53;4.00;;;;;;;19.30;55.69;100219.81;5092961;28;20455;-60
2022/05/02 11:54:27;;;;;;;4.70;3.53;;;;;;;19.30;55.66;100226.38;5092968;28;20570;-59
2022/05/02 11:56:58;;;;;;;7.00;3.50;;;;;;;19.31;55.76;100219.44;5092682;28;20410;-60
2022/05/02 11:59:24;;;;;;;10.17;4.10;;;;;;;19.29;55.64;100227.59;5089426;28;20432;-60
2022/05/02 12:01:52;;;;;;;8.40;4.00;;;;;;;19.28;56.13;100220.22;5057885;28;20412;-60
2022/05/02 12:04:19;;;;;;;6.80;3.70;;;;;;;19.29;55.98;100221.88;5075156;28;20641;-60
2022/05/02 12:06:57;;;;;;;11.97;4.47;;;;;;;19.29;55.96;100219.00;5057936;28;20420;-60
2022/05/02 12:09:23;;;;;;;4.90;3.70;;;;;;;19.30;55.74;100219.81;5092666;28;21016;-59
2022/05/02 12:11:56;;;;;;;10.60;3.77;;;;;;;19.30;55.77;100214.94;5092380;28;20462;-60
2022/05/02 12:14:22;;;;;;;7.37;3.67;;;;;;;19.30;55.93;100209.22;5092520;28;20257;-60
2022/05/02 12:17:07;;;;;;;8.93;4.20;;;;;;;19.29;55.76;100204.69;5092270;28;20427;-60